createdAt,value
2023-04-02T00:00:30.955Z,81.00
2023-04-02T00:03:05.218Z,81.10
2023-04-02T00:05:55.939Z,80.50
2023-04-02T00:08:31.598Z,80.50
2023-04-02T00:11:01.957Z,80.50
2023-04-02T00:13:40.826Z,80.50
2023-04-02T00:16:25.495Z,80.50
2023-04-02T00:18:55.528Z,80.10
2023-04-02T00:21:26.152Z,80.20
2023-04-02T00:23:56.414Z,80.20
2023-04-02T00:26:31.842Z,80.20
2023-04-02T00:29:03.091Z,80.20
2023-04-02T00:31:33.972Z,80.10
2023-04-02T00:34:05.203Z,80.20
2023-04-02T00:36:42.241Z,80.10
2023-04-02T00:39:14.003Z,80.10
2023-04-02T00:41:48.331Z,80.10
2023-04-02T00:44:24.390Z,80.10
2023-04-02T00:47:09.195Z,80.10
2023-04-02T00:49:41.136Z,80.10
2023-04-02T00:52:10.416Z,80.10
2023-04-02T00:54:53.548Z,80.10
2023-04-02T00:57:27.714Z,80.10
2023-04-02T01:00:02.775Z,80.20
2023-04-02T01:02:32.585Z,80.20
2023-04-02T01:05:06.540Z,80.20
2023-04-02T01:07:58.410Z,80.20
2023-04-02T01:10:41.617Z,80.20
2023-04-02T01:13:15.767Z,80.10
2023-04-02T01:15:49.505Z,80.20
2023-04-02T01:18:26.814Z,80.10
2023-04-02T01:21:11.084Z,80.00
2023-04-02T01:23:48.694Z,80.00
2023-04-02T01:26:25.159Z,80.00
2023-04-02T01:29:02.390Z,79.90
2023-04-02T01:31:35.600Z,79.90
2023-04-02T01:34:04.491Z,79.90
2023-04-02T01:36:38.472Z,79.90
2023-04-02T01:39:12.342Z,79.90
2023-04-02T01:41:43.575Z,79.90
2023-04-02T01:44:15.406Z,79.90
2023-04-02T01:46:45.156Z,79.90
2023-04-02T01:49:16.488Z,79.90
2023-04-02T01:51:49.151Z,79.90
2023-04-02T01:54:19.743Z,79.80
2023-04-02T01:56:48.558Z,79.80
2023-04-02T01:59:20.324Z,79.80
2023-04-02T02:02:03.255Z,79.80
2023-04-02T02:04:36.610Z,79.80
2023-04-02T02:07:14.524Z,79.80
2023-04-02T02:09:45.265Z,80.00
2023-04-02T02:12:16.283Z,79.90
2023-04-02T02:14:49.384Z,79.90
2023-04-02T02:17:29.436Z,79.90
2023-04-02T02:19:59.404Z,80.00
2023-04-02T02:22:29.896Z,80.00
2023-04-02T02:24:58.838Z,80.10
2023-04-02T02:39:36.746Z,80.00
2023-04-02T02:42:09.606Z,79.90
2023-04-02T02:44:41.358Z,79.90
2023-04-02T02:47:12.675Z,79.90
2023-04-02T02:49:43.109Z,79.80
2023-04-02T02:52:16.175Z,79.80
2023-04-02T02:54:56.190Z,79.80
2023-04-02T02:57:29.032Z,79.80
2023-04-02T02:59:59.442Z,79.70
2023-04-02T03:02:28.855Z,79.70
2023-04-02T03:04:59.455Z,79.70
2023-04-02T03:07:31.519Z,79.70
2023-04-02T03:13:14.167Z,79.70
2023-04-02T03:15:45.071Z,79.70
2023-04-02T03:18:19.643Z,79.70
2023-04-02T03:20:50.085Z,79.70
2023-04-02T03:23:23.584Z,79.70
2023-04-02T03:25:57.969Z,79.70
2023-04-02T03:28:30.489Z,79.70
2023-04-02T03:31:04.087Z,79.70
2023-04-02T03:33:34.330Z,79.70
2023-04-02T03:36:12.953Z,79.70
2023-04-02T03:38:45.161Z,79.70
2023-04-02T03:41:20.115Z,79.80
2023-04-02T03:43:51.169Z,79.90
2023-04-02T03:46:25.652Z,79.90
2023-04-02T03:49:00.186Z,79.90
2023-04-02T03:51:33.069Z,79.90
2023-04-02T03:54:03.179Z,79.90
2023-04-02T03:56:40.002Z,79.90
2023-04-02T03:59:15.784Z,79.90
2023-04-02T04:01:50.984Z,79.90
2023-04-02T04:04:23.342Z,79.80
2023-04-02T04:06:54.051Z,79.80
2023-04-02T04:09:28.911Z,79.80
2023-04-02T04:12:03.857Z,79.80
2023-04-02T04:14:34.977Z,79.90
2023-04-02T04:17:09.845Z,79.90
2023-04-02T04:19:46.399Z,79.90
2023-04-02T04:22:18.103Z,79.90
2023-04-02T04:24:50.540Z,79.90
2023-04-02T04:27:25.633Z,79.90
2023-04-02T04:29:58.648Z,79.90
2023-04-02T04:32:32.191Z,79.90
2023-04-02T04:35:10.357Z,79.90
2023-04-02T04:37:43.129Z,79.90
2023-04-02T04:40:17.743Z,79.80
2023-04-02T04:42:49.085Z,79.80
2023-04-02T04:45:27.629Z,79.80
2023-04-02T04:48:02.885Z,79.80
2023-04-02T04:50:34.295Z,79.80
2023-04-02T04:53:07.425Z,79.90
2023-04-02T04:55:40.307Z,79.80
2023-04-02T04:58:26.025Z,79.90
2023-04-02T05:00:58.470Z,79.80
2023-04-02T05:03:32.589Z,79.90
2023-04-02T05:06:05.989Z,80.00
2023-04-02T05:08:36.410Z,80.00
2023-04-02T05:11:09.718Z,80.00
2023-04-02T05:13:42.111Z,80.00
2023-04-02T05:16:18.084Z,80.00
2023-04-02T05:18:48.991Z,80.10
2023-04-02T05:21:20.701Z,80.10
2023-04-02T05:23:53.359Z,80.10
2023-04-02T05:26:23.453Z,80.10
2023-04-02T05:28:56.110Z,80.20
2023-04-02T05:31:30.574Z,80.10
2023-04-02T05:34:00.447Z,80.10
2023-04-02T05:36:32.773Z,80.10
2023-04-02T05:39:03.048Z,80.10
2023-04-02T05:41:47.636Z,80.00
2023-04-02T05:44:28.997Z,79.90
2023-04-02T05:46:59.429Z,79.80
2023-04-02T05:49:32.580Z,79.80
2023-04-02T05:52:03.782Z,79.70
2023-04-02T05:54:34.869Z,79.50
2023-04-02T05:57:09.791Z,79.50
2023-04-02T06:02:35.252Z,80.10
2023-04-02T06:05:08.973Z,79.90
2023-04-02T06:07:45.308Z,80.00
2023-04-02T06:10:19.141Z,79.70
2023-04-02T06:12:51.173Z,79.80
2023-04-02T06:15:23.087Z,79.90
2023-04-02T06:18:01.466Z,79.90
2023-04-02T06:20:30.646Z,79.80
2023-04-02T06:23:01.488Z,79.60
2023-04-02T06:25:32.495Z,79.60
2023-04-02T06:28:03.752Z,79.70
2023-04-02T06:30:38.371Z,79.50
2023-04-02T06:33:11.517Z,79.70
2023-04-02T06:35:56.684Z,79.50
2023-04-02T06:38:32.429Z,79.30
2023-04-02T06:41:02.691Z,79.50
2023-04-02T06:43:44.277Z,79.40
2023-04-02T06:46:41.365Z,79.60
2023-04-02T06:49:22.969Z,79.20
2023-04-02T06:51:56.040Z,79.20
2023-04-02T06:54:24.982Z,79.20
2023-04-02T06:56:58.182Z,79.30
2023-04-02T06:59:30.038Z,79.30
2023-04-02T07:02:06.943Z,79.10
2023-04-02T07:04:37.974Z,78.90
2023-04-02T07:07:06.814Z,78.70
2023-04-02T07:09:43.027Z,78.60
2023-04-02T07:12:15.400Z,78.70
2023-04-02T07:17:36.984Z,78.80
2023-04-02T07:20:18.860Z,78.40
2023-04-02T07:22:49.920Z,77.90
2023-04-02T07:25:20.066Z,77.70
2023-04-02T07:27:49.375Z,77.90
2023-04-02T07:33:42.073Z,77.60
2023-04-02T07:36:16.226Z,77.50
2023-04-02T07:38:46.961Z,77.50
2023-04-02T07:41:21.431Z,78.00
2023-04-02T07:43:50.681Z,77.90
2023-04-02T07:46:23.471Z,78.20
2023-04-02T07:48:53.310Z,78.60
2023-04-02T07:51:22.573Z,79.00
2023-04-02T07:53:56.408Z,79.10
2023-04-02T07:56:26.211Z,79.50
2023-04-02T07:58:57.373Z,79.40
2023-04-02T08:01:27.787Z,79.80
2023-04-02T08:03:58.660Z,80.00
2023-04-02T08:06:27.923Z,80.10
2023-04-02T08:17:36.460Z,80.50
2023-04-02T08:28:54.761Z,80.70
2023-04-02T08:37:18.644Z,80.70
2023-04-02T08:40:13.138Z,80.70
2023-04-02T08:42:45.047Z,80.70
2023-04-02T08:45:25.399Z,80.60
2023-04-02T08:48:07.860Z,80.60
2023-04-02T08:50:38.245Z,80.60
2023-04-02T08:53:13.160Z,80.60
2023-04-02T08:55:45.008Z,80.50
2023-04-02T08:58:20.843Z,80.30
2023-04-02T09:00:54.357Z,80.30
2023-04-02T09:03:30.896Z,80.80
2023-04-02T09:06:01.765Z,80.50
2023-04-02T09:08:54.391Z,80.40
2023-04-02T09:11:27.740Z,80.40
2023-04-02T09:13:57.671Z,80.40
2023-04-02T09:19:22.209Z,80.30
2023-04-02T09:22:02.851Z,80.30
2023-04-02T09:24:31.687Z,80.20
2023-04-02T09:27:23.797Z,80.10
2023-04-02T09:32:34.478Z,80.60
2023-04-02T10:12:00.738Z,79.90
2023-04-02T10:14:34.285Z,80.10
2023-04-02T10:17:26.699Z,79.50
2023-04-02T10:22:29.601Z,80.00
2023-04-02T10:25:02.700Z,80.00
2023-04-02T10:27:39.568Z,79.90
2023-04-02T10:33:01.357Z,80.10
2023-04-02T10:38:43.872Z,79.20
2023-04-02T10:44:27.817Z,79.20
2023-04-02T10:47:12.340Z,78.60
2023-04-02T10:49:45.629Z,77.90
2023-04-02T10:55:14.082Z,78.10
2023-04-02T11:00:55.018Z,76.40
2023-04-02T11:06:20.167Z,76.10
2023-04-02T11:08:50.356Z,75.20
2023-04-02T11:17:05.440Z,75.10
2023-04-02T11:22:27.225Z,75.30
2023-04-02T11:28:04.251Z,76.10
2023-04-02T11:30:57.443Z,76.60
2023-04-02T11:42:19.208Z,75.80
2023-04-02T11:44:53.348Z,75.30
2023-04-02T11:47:25.432Z,75.80
2023-04-02T12:10:33.286Z,76.00
2023-04-02T12:21:35.374Z,76.60
2023-04-02T12:24:27.785Z,76.50
2023-04-02T12:27:27.878Z,76.60
2023-04-02T12:39:42.935Z,76.00
2023-04-02T12:53:29.090Z,76.20
2023-04-02T13:26:51.576Z,75.70
2023-04-02T13:32:42.664Z,75.90
2023-04-02T13:43:46.462Z,76.40
2023-04-02T13:46:20.885Z,76.20
2023-04-02T13:48:52.201Z,76.20
2023-04-02T13:51:22.302Z,76.40
2023-04-02T13:53:53.266Z,76.30
2023-04-02T13:56:23.905Z,76.50
2023-04-02T13:58:53.211Z,76.30
2023-04-02T14:01:23.664Z,76.60
2023-04-02T14:03:56.632Z,76.60
2023-04-02T14:06:32.056Z,76.40
2023-04-02T14:09:06.777Z,76.30
2023-04-02T14:11:42.027Z,76.60
2023-04-02T14:14:18.064Z,76.70
2023-04-02T14:19:49.471Z,77.10
2023-04-02T14:22:26.176Z,76.50
2023-04-02T14:25:03.889Z,76.50
2023-04-02T14:27:40.234Z,76.60
2023-04-02T14:35:45.610Z,76.50
2023-04-02T14:38:22.261Z,76.50
2023-04-02T14:40:57.289Z,76.20
2023-04-02T14:43:34.514Z,75.70
2023-04-02T14:46:04.869Z,76.00
2023-04-02T14:48:40.684Z,76.10
2023-04-02T14:51:15.109Z,76.40
2023-04-02T14:53:52.059Z,76.20
2023-04-02T14:56:23.132Z,76.40
2023-04-02T14:58:58.527Z,76.40
2023-04-02T15:01:30.000Z,76.30
2023-04-02T15:04:05.213Z,76.00
2023-04-02T15:06:41.094Z,76.40
2023-04-02T15:09:16.669Z,76.40
2023-04-02T15:11:50.553Z,76.10
2023-04-02T15:14:21.434Z,76.20
2023-04-02T15:16:51.564Z,76.20
2023-04-02T15:19:20.547Z,76.30
2023-04-02T15:22:02.149Z,76.00
2023-04-02T15:24:51.170Z,76.00
2023-04-02T15:27:27.446Z,76.30
2023-04-02T15:30:01.520Z,76.10
2023-04-02T15:32:36.812Z,75.70
2023-04-02T15:35:11.596Z,75.90
2023-04-02T15:37:42.044Z,76.30
2023-04-02T15:40:34.447Z,76.20
2023-04-02T15:43:09.146Z,76.30
2023-04-02T15:45:43.195Z,76.10
2023-04-02T15:48:36.884Z,75.80
2023-04-02T15:51:13.805Z,76.20
2023-04-02T15:53:50.864Z,75.80
2023-04-02T15:56:32.485Z,76.00
2023-04-02T15:59:10.294Z,76.60
2023-04-02T16:01:42.963Z,75.90
2023-04-02T16:04:19.541Z,76.00
2023-04-02T16:06:58.903Z,76.00
2023-04-02T16:09:31.494Z,75.60
2023-04-02T16:12:02.893Z,75.80
2023-04-02T16:14:35.388Z,76.00
2023-04-02T16:17:17.544Z,75.80
2023-04-02T16:19:58.827Z,75.90
2023-04-02T16:22:30.120Z,75.80
2023-04-02T16:25:02.211Z,76.00
2023-04-02T16:27:32.550Z,75.50
2023-04-02T16:30:16.588Z,75.50
2023-04-02T16:32:51.996Z,75.60
2023-04-02T16:35:42.312Z,75.90
2023-04-02T16:38:17.209Z,75.80
2023-04-02T16:41:04.698Z,75.80
2023-04-02T16:43:41.710Z,75.70
2023-04-02T16:46:13.764Z,75.80
2023-04-02T16:48:48.208Z,75.90
2023-04-02T16:51:21.582Z,75.70
2023-04-02T16:54:02.222Z,75.70
2023-04-02T16:56:58.085Z,75.60
2023-04-02T16:59:29.809Z,75.50
2023-04-02T17:02:00.605Z,75.70
2023-04-02T17:04:54.658Z,75.70
2023-04-02T17:07:38.625Z,76.00
2023-04-02T17:10:22.381Z,75.40
2023-04-02T17:12:57.348Z,75.70
2023-04-02T17:15:29.717Z,75.30
2023-04-02T17:18:00.094Z,75.30
2023-04-02T17:20:33.034Z,75.70
2023-04-02T17:23:05.295Z,75.40
2023-04-02T17:25:37.684Z,75.40
2023-04-02T17:28:11.773Z,75.70
2023-04-02T17:30:42.461Z,75.30
2023-04-02T17:33:16.887Z,75.10
2023-04-02T17:35:53.946Z,75.40
2023-04-02T17:38:26.485Z,75.40
2023-04-02T17:40:58.267Z,75.30
2023-04-02T17:43:33.512Z,75.20
2023-04-02T17:46:06.928Z,75.20
2023-04-02T17:48:38.663Z,75.00
2023-04-02T17:51:16.328Z,75.60
2023-04-02T17:53:49.864Z,75.40
2023-04-02T17:56:24.114Z,75.10
2023-04-02T17:59:02.477Z,75.70
2023-04-02T18:01:33.930Z,75.20
2023-04-02T18:04:12.824Z,75.30
2023-04-02T18:06:48.890Z,75.20
2023-04-02T18:09:30.934Z,75.40
2023-04-02T18:12:11.647Z,75.70
2023-04-02T18:14:51.931Z,75.60
2023-04-02T18:17:24.809Z,75.40
2023-04-02T18:19:55.411Z,75.80
2023-04-02T18:22:32.099Z,75.60
2023-04-02T18:25:09.148Z,75.40
2023-04-02T18:27:50.877Z,75.60
2023-04-02T18:30:24.387Z,75.70
2023-04-02T18:33:12.757Z,75.60
2023-04-02T18:35:45.580Z,75.80
2023-04-02T18:38:23.166Z,75.70
2023-04-02T18:41:01.269Z,75.70
2023-04-02T18:43:41.985Z,75.80
2023-04-02T18:46:20.588Z,76.00
2023-04-02T18:48:53.885Z,76.20
2023-04-02T18:51:24.750Z,76.20
2023-04-02T18:54:05.414Z,76.10
2023-04-02T18:56:37.004Z,76.10
2023-04-02T19:02:30.951Z,76.00
2023-04-02T19:05:04.472Z,76.00
2023-04-02T19:07:56.840Z,76.10
2023-04-02T19:10:30.486Z,76.30
2023-04-02T19:13:00.335Z,76.20
2023-04-02T19:15:34.002Z,76.20
2023-04-02T19:18:22.679Z,76.00
2023-04-02T19:20:57.737Z,76.30
2023-04-02T19:23:36.306Z,76.00
2023-04-02T19:26:10.121Z,75.90
2023-04-02T19:28:42.285Z,76.00
2023-04-02T19:31:36.308Z,75.70
2023-04-02T19:34:15.221Z,75.70
2023-04-02T19:36:47.630Z,75.90
2023-04-02T19:39:26.911Z,75.70
2023-04-02T19:42:12.454Z,75.80
2023-04-02T19:44:48.430Z,75.70
2023-04-02T19:47:18.000Z,75.80
2023-04-02T19:49:46.773Z,75.70
2023-04-02T19:52:15.268Z,75.90
2023-04-02T19:54:52.105Z,75.30
2023-04-02T19:57:44.123Z,75.20
2023-04-02T20:00:17.882Z,75.20
2023-04-02T20:03:05.697Z,75.40
2023-04-02T20:05:38.283Z,75.40
2023-04-02T20:08:07.518Z,75.20
2023-04-02T20:10:37.735Z,74.90
2023-04-02T20:13:24.402Z,75.10
2023-04-02T20:16:00.314Z,74.90
2023-04-02T20:18:54.447Z,75.10
2023-04-02T20:21:24.185Z,74.80
2023-04-02T20:23:54.138Z,74.80
2023-04-02T20:26:24.214Z,75.10
2023-04-02T20:28:53.756Z,75.10
2023-04-02T20:31:24.322Z,74.80
2023-04-02T20:33:56.672Z,74.90
2023-04-02T20:36:33.763Z,74.80
2023-04-02T20:39:02.161Z,74.60
2023-04-02T20:41:31.293Z,74.90
2023-04-02T20:44:13.498Z,75.20
2023-04-02T20:46:46.346Z,75.20
2023-04-02T20:49:15.773Z,74.70
2023-04-02T20:51:51.749Z,75.30
2023-04-02T20:54:26.322Z,74.90
2023-04-02T21:02:45.785Z,75.10
2023-04-02T21:05:22.775Z,75.10
2023-04-02T21:08:13.809Z,75.20
2023-04-02T21:10:43.515Z,75.00
2023-04-02T21:13:13.257Z,74.90
2023-04-02T21:15:46.683Z,74.90
2023-04-02T21:18:22.329Z,75.10
2023-04-02T21:21:09.131Z,74.90
2023-04-02T21:24:01.456Z,74.70
2023-04-02T21:27:00.075Z,75.00
2023-04-02T21:29:29.613Z,75.20
2023-04-02T21:31:59.891Z,74.80
2023-04-02T21:34:32.911Z,75.10
2023-04-02T21:39:45.366Z,75.10
2023-04-02T21:42:14.835Z,75.40
2023-04-02T21:44:45.808Z,75.50
2023-04-02T21:47:17.095Z,75.40
2023-04-02T21:49:49.807Z,75.90
2023-04-02T21:52:20.336Z,75.70
2023-04-02T21:54:49.151Z,75.80
2023-04-02T21:57:19.241Z,75.60
2023-04-02T21:59:47.824Z,76.00
2023-04-02T22:02:17.155Z,75.90
2023-04-02T22:04:50.242Z,75.80
2023-04-02T22:07:20.389Z,75.90
2023-04-02T22:09:49.516Z,75.90
2023-04-02T22:12:19.146Z,75.70
2023-04-02T22:14:49.852Z,75.80
2023-04-02T22:17:18.577Z,75.70
2023-04-02T22:19:49.272Z,75.90
2023-04-02T22:22:18.134Z,76.00
2023-04-02T22:24:52.072Z,76.30
2023-04-02T22:27:20.467Z,76.20
2023-04-02T22:29:49.182Z,76.30
2023-04-02T22:32:18.147Z,76.40
2023-04-02T22:34:46.432Z,76.40
2023-04-02T22:37:20.739Z,76.70
2023-04-02T22:39:50.538Z,76.60
2023-04-02T22:42:21.491Z,76.60
2023-04-02T22:44:49.976Z,76.50
2023-04-02T22:47:18.112Z,76.70
2023-04-02T22:49:46.718Z,76.50
2023-04-02T22:52:19.252Z,76.70
2023-04-02T22:54:49.194Z,76.50
2023-04-02T22:57:17.957Z,76.30
2023-04-02T22:59:48.306Z,76.30
2023-04-02T23:02:18.789Z,76.20
2023-04-02T23:04:47.400Z,76.50
2023-04-02T23:07:18.567Z,76.50
2023-04-02T23:09:49.431Z,76.50
2023-04-02T23:12:19.226Z,76.30
2023-04-02T23:14:50.747Z,76.60
2023-04-02T23:17:19.493Z,76.50
2023-04-02T23:19:49.542Z,76.70
2023-04-02T23:22:23.343Z,76.60
2023-04-02T23:24:54.501Z,76.60
2023-04-02T23:27:23.805Z,76.80
2023-04-02T23:29:52.959Z,76.60
2023-04-02T23:35:58.867Z,76.60
2023-04-02T23:38:28.939Z,76.30
2023-04-02T23:40:58.749Z,76.60
2023-04-02T23:43:28.959Z,76.60
2023-04-02T23:45:58.526Z,76.70
2023-04-02T23:48:27.256Z,76.60
2023-04-02T23:50:55.562Z,76.80
2023-04-02T23:53:24.143Z,76.70
2023-04-02T23:55:54.605Z,76.60
2023-04-02T23:58:29.351Z,76.60
